Progresso, New Mexico
Current Conditions -  °F | °C
As of 6:15 AM on Friday 24 Oct 2014 (Local Time) from K0E0 Reporting Station
Clear Clear  
Wind Chill: 26°   Ceiling: Unl
Heat Index: 32°   Visibility: 10mi
Dew Point: 29°   Wind: 7mph
Humidity: 90%   Direction: 30°NNE
Pressure: 30.33"   Gusts: NA
Location:  34.4464°N, 106.01°W
Report Text: K0E0 241215Z AUTO 03006KT 10SM CLR 00/M01 A3033 RMK AO2 T00001014
Loading
Personal Weather Stations






























Interactive Weather Map
Tropical Storm Tracking
New forecast layout! Learn more

10-Day Weather Forecast

Advertisements
Track Severe Weather on mobile